Time;durP1;ratioP1;P1;durP2;ratioP2;P2;SDS_P1;SDS_P2;PMS_P1;PMS_P2;Temp;Humidity;BMP_temperature;BMP_pressure;BME280_temperature;BME280_humidity;BME280_pressure;Samples;Min_cycle;Max_cycle;Signal;HPM_P1;HPM_P2
2022/04/03 00:00:49;;;;;;;16.50;12.23;;;0.70;45.60;;;;;;5002096;28;20186;-68
2022/04/03 00:03:15;;;;;;;12.10;10.10;;;0.70;45.10;;;;;;4996386;28;20199;-68
2022/04/03 00:05:43;;;;;;;11.77;10.03;;;0.70;45.20;;;;;;4995340;28;20229;-68
2022/04/03 00:08:10;;;;;;;15.20;11.70;;;0.90;44.80;;;;;;4996367;28;20338;-68
2022/04/03 00:10:36;;;;;;;10.63;9.57;;;0.90;44.80;;;;;;5006976;28;20194;-68
2022/04/03 00:13:03;;;;;;;11.50;10.25;;;0.80;44.70;;;;;;5015790;28;20676;-68
2022/04/03 00:15:28;;;;;;;13.25;9.95;;;0.90;44.80;;;;;;5016277;28;20207;-68
2022/04/03 00:17:55;;;;;;;11.97;10.07;;;1.00;44.30;;;;;;5015642;28;20178;-68
2022/04/03 00:20:20;;;;;;;12.10;8.88;;;1.10;44.10;;;;;;5015528;28;20651;-68
2022/04/03 00:22:48;;;;;;;10.27;8.93;;;1.20;44.20;;;;;;5015090;28;20222;-68
2022/04/03 00:25:18;;;;;;;15.77;10.90;;;0.90;42.90;;;;;;5014578;28;20221;-68
2022/04/03 00:27:44;;;;;;;10.57;9.57;;;1.00;44.30;;;;;;5013490;28;20567;-68
2022/04/03 00:30:10;;;;;;;17.25;10.43;;;0.90;42.90;;;;;;5013229;28;20182;-68
2022/04/03 00:32:36;;;;;;;10.13;8.98;;;0.50;44.40;;;;;;5014321;28;20203;-68
2022/04/03 00:35:03;;;;;;;12.77;10.67;;;0.60;45.50;;;;;;5013952;28;20208;-68
2022/04/03 00:37:28;;;;;;;13.02;10.90;;;0.30;46.10;;;;;;5012227;28;20259;-69
2022/04/03 00:39:54;;;;;;;15.27;11.17;;;0.30;47.30;;;;;;5015768;28;20640;-68
2022/04/03 00:42:20;;;;;;;12.60;11.30;;;0.40;47.00;;;;;;5014290;28;20240;-68
2022/04/03 00:44:46;;;;;;;14.67;10.07;;;0.40;47.50;;;;;;5014641;28;20191;-68
2022/04/03 00:47:14;;;;;;;11.85;10.27;;;0.60;47.10;;;;;;5012137;28;20188;-67
2022/04/03 00:49:40;;;;;;;11.68;10.48;;;0.80;46.60;;;;;;5012873;28;20238;-69
2022/04/03 00:52:06;;;;;;;12.23;9.73;;;0.90;45.20;;;;;;5014622;28;20198;-68
2022/04/03 00:54:32;;;;;;;10.93;9.43;;;0.90;44.80;;;;;;5014660;28;20245;-68
2022/04/03 00:56:58;;;;;;;11.77;9.77;;;1.10;44.20;;;;;;5014131;28;20452;-69
2022/04/03 00:59:23;;;;;;;10.85;9.75;;;1.20;43.90;;;;;;5013633;28;20226;-69
2022/04/03 01:01:49;;;;;;;12.10;9.57;;;1.10;43.20;;;;;;5013589;28;20211;-68
2022/04/03 01:04:14;;;;;;;10.93;9.27;;;1.00;42.30;;;;;;5015047;28;20175;-69
2022/04/03 01:06:40;;;;;;;11.23;9.83;;;1.10;42.90;;;;;;5014007;28;20179;-67
2022/04/03 01:09:06;;;;;;;14.10;10.67;;;1.00;42.10;;;;;;5017544;28;20258;-69
2022/04/03 01:11:32;;;;;;;13.10;11.20;;;0.70;42.20;;;;;;5019200;28;20194;-68
2022/04/03 01:13:58;;;;;;;13.00;10.60;;;0.80;43.70;;;;;;5016754;28;20929;-68
2022/04/03 01:16:24;;;;;;;12.93;10.05;;;0.80;43.20;;;;;;5017357;28;20592;-68
2022/04/03 01:18:50;;;;;;;11.07;9.98;;;0.80;43.30;;;;;;5016773;28;20277;-69
2022/04/03 01:21:19;;;;;;;11.40;10.15;;;0.80;43.70;;;;;;5016786;28;20189;-68
2022/04/03 01:23:45;;;;;;;11.63;10.20;;;0.80;44.70;;;;;;5018755;28;20179;-68
2022/04/03 01:26:10;;;;;;;10.23;9.23;;;0.50;44.40;;;;;;5018880;28;20180;-68
2022/04/03 01:28:37;;;;;;;11.13;10.00;;;0.40;44.40;;;;;;5018402;28;20229;-69
2022/04/03 01:31:03;;;;;;;11.10;9.93;;;0.20;45.50;;;;;;5018144;28;20235;-68
2022/04/03 01:33:28;;;;;;;12.30;11.13;;;0.00;47.60;;;;;;5016266;28;20646;-68
2022/04/03 01:35:54;;;;;;;15.77;11.30;;;0.10;48.30;;;;;;5017071;28;20268;-68
2022/04/03 01:38:19;;;;;;;12.47;10.07;;;0.20;48.50;;;;;;5015529;28;20267;-68
2022/04/03 01:40:45;;;;;;;15.07;11.67;;;0.40;48.00;;;;;;5015938;28;20181;-68
2022/04/03 01:43:11;;;;;;;14.93;11.07;;;0.30;47.40;;;;;;5015039;28;20206;-67
2022/04/03 01:45:37;;;;;;;13.93;12.53;;;0.50;47.10;;;;;;5016039;28;20701;-68
2022/04/03 01:48:04;;;;;;;12.57;10.40;;;0.40;47.40;;;;;;5015689;28;20269;-67
2022/04/03 01:50:30;;;;;;;13.35;11.95;;;0.50;46.60;;;;;;5016617;28;20322;-68
2022/04/03 01:52:55;;;;;;;13.60;11.97;;;0.70;46.70;;;;;;5015411;28;20216;-68
2022/04/03 01:55:21;;;;;;;10.43;9.33;;;0.50;44.40;;;;;;5015147;28;20208;-68
2022/04/03 01:57:46;;;;;;;12.57;11.03;;;0.50;45.40;;;;;;5013176;28;20186;-68
2022/04/03 02:00:12;;;;;;;12.30;10.57;;;0.60;44.50;;;;;;5015007;28;20184;-67
2022/04/03 02:02:41;;;;;;;14.15;11.40;;;0.60;44.50;;;;;;5014999;28;20199;-68
2022/04/03 02:05:07;;;;;;;11.10;9.00;;;0.40;44.70;;;;;;5014901;28;20589;-68
2022/04/03 02:07:33;;;;;;;17.17;11.00;;;0.40;45.60;;;;;;5014486;28;20196;-68
2022/04/03 02:10:08;;;;;;;14.88;10.63;;;0.30;45.80;;;;;;5015208;28;20186;-68
2022/04/03 02:12:41;;;;;;;20.63;12.32;;;0.50;45.80;;;;;;5017194;28;20733;-68
2022/04/03 02:15:08;;;;;;;12.73;11.40;;;0.60;44.50;;;;;;5014538;28;20219;-68
2022/04/03 02:17:34;;;;;;;12.93;11.38;;;0.50;44.40;;;;;;5015986;28;20258;-68
2022/04/03 02:20:00;;;;;;;14.40;11.13;;;0.40;44.30;;;;;;5014886;28;20217;-68
2022/04/03 02:22:26;;;;;;;14.75;10.50;;;0.30;45.00;;;;;;5015371;28;20474;-67
2022/04/03 02:24:51;;;;;;;13.60;11.43;;;0.40;46.10;;;;;;5015775;28;20272;-68
2022/04/03 02:27:17;;;;;;;17.33;11.97;;;0.20;45.80;;;;;;5016559;28;20320;-68
2022/04/03 02:29:42;;;;;;;17.10;10.53;;;0.40;46.30;;;;;;5016997;28;20225;-67
2022/04/03 02:32:08;;;;;;;17.00;11.70;;;0.70;44.90;;;;;;5016781;28;20199;-68
2022/04/03 02:34:33;;;;;;;13.73;11.50;;;0.70;42.90;;;;;;5016656;28;20199;-69
2022/04/03 02:36:59;;;;;;;13.77;11.00;;;0.60;43.30;;;;;;5017297;28;20222;-68
2022/04/03 02:39:25;;;;;;;14.40;10.80;;;0.60;44.50;;;;;;5017306;28;20189;-68
2022/04/03 02:41:50;;;;;;;13.90;12.50;;;0.40;43.40;;;;;;5016731;28;20288;-68
2022/04/03 02:44:16;;;;;;;14.57;11.93;;;0.30;44.30;;;;;;5016440;28;20470;-69
2022/04/03 02:46:42;;;;;;;14.70;12.30;;;0.30;45.00;;;;;;5017021;28;20530;-69
2022/04/03 02:49:08;;;;;;;15.27;12.10;;;0.50;44.90;;;;;;5015882;28;20224;-69
2022/04/03 02:51:34;;;;;;;19.63;11.97;;;0.50;44.20;;;;;;5016795;28;20495;-69
2022/04/03 02:54:00;;;;;;;13.27;11.93;;;0.50;44.10;;;;;;5015571;28;20229;-68
2022/04/03 02:56:25;;;;;;;12.60;10.47;;;0.60;44.50;;;;;;5015900;28;20266;-67
2022/04/03 02:58:53;;;;;;;13.07;10.70;;;0.80;43.00;;;;;;5015713;28;20183;-68
2022/04/03 03:01:19;;;;;;;17.10;11.93;;;0.80;43.10;;;;;;5011172;28;20187;-68
2022/04/03 03:03:45;;;;;;;13.93;10.87;;;0.60;42.00;;;;;;4996738;28;20530;-68
2022/04/03 03:06:10;;;;;;;16.73;11.87;;;0.70;42.40;;;;;;4995144;28;21030;-68
2022/04/03 03:08:36;;;;;;;14.03;11.43;;;0.70;42.00;;;;;;5003103;28;20202;-66
2022/04/03 03:11:01;;;;;;;15.03;11.20;;;0.40;42.60;;;;;;5015065;28;20652;-67
2022/04/03 03:13:27;;;;;;;16.10;12.30;;;0.40;44.30;;;;;;5014048;28;20224;-67
2022/04/03 03:15:53;;;;;;;14.55;11.98;;;0.40;44.30;;;;;;5014369;28;20205;-66
2022/04/03 03:18:19;;;;;;;12.47;9.73;;;0.30;44.20;;;;;;5013482;28;20190;-69
2022/04/03 03:20:44;;;;;;;15.77;12.37;;;0.40;44.30;;;;;;5015919;28;20244;-69
2022/04/03 03:23:10;;;;;;;18.87;13.50;;;0.40;44.30;;;;;;5015672;28;20608;-68
2022/04/03 03:25:35;;;;;;;15.67;11.70;;;0.30;44.50;;;;;;5014053;28;20189;-68
2022/04/03 03:28:01;;;;;;;16.83;12.00;;;0.50;44.50;;;;;;5014324;28;20186;-68
2022/04/03 03:30:27;;;;;;;15.77;13.07;;;0.50;43.10;;;;;;5015298;28;20637;-68
2022/04/03 03:32:53;;;;;;;18.73;14.20;;;0.30;44.20;;;;;;5015265;28;20440;-69
2022/04/03 03:35:18;;;;;;;14.57;11.63;;;0.40;44.20;;;;;;5014270;28;20232;-69
2022/04/03 03:37:44;;;;;;;16.47;12.10;;;0.60;43.80;;;;;;5014772;28;20608;-69
2022/04/03 03:40:11;;;;;;;11.73;9.80;;;0.70;42.50;;;;;;5015350;28;20181;-66
2022/04/03 03:42:39;;;;;;;13.40;10.75;;;0.80;41.60;;;;;;5015174;28;20245;-69
2022/04/03 03:45:05;;;;;;;13.27;11.98;;;0.90;41.00;;;;;;5013325;28;20185;-68
2022/04/03 03:47:31;;;;;;;12.77;11.48;;;1.00;41.00;;;;;;5012860;28;20239;-68
2022/04/03 03:49:57;;;;;;;14.17;12.50;;;1.00;40.40;;;;;;5013500;28;20179;-68
2022/04/03 03:52:22;;;;;;;12.43;10.90;;;1.10;40.80;;;;;;5013377;28;20203;-68
2022/04/03 03:54:48;;;;;;;12.57;11.23;;;1.10;40.50;;;;;;5015223;28;20172;-68
2022/04/03 03:57:13;;;;;;;15.50;12.63;;;0.90;40.40;;;;;;5014867;28;20175;-68
2022/04/03 03:59:39;;;;;;;16.60;12.67;;;0.80;40.30;;;;;;5014104;28;20177;-67
2022/04/03 04:02:05;;;;;;;14.70;12.40;;;0.60;42.00;;;;;;5013490;28;20196;-68
2022/04/03 04:04:30;;;;;;;14.60;12.23;;;0.70;41.80;;;;;;5013267;28;20210;-67
2022/04/03 04:06:56;;;;;;;16.23;11.10;;;0.80;41.60;;;;;;5011813;28;20185;-67
2022/04/03 04:09:22;;;;;;;14.43;12.68;;;0.90;41.40;;;;;;5016039;28;20207;-68
2022/04/03 04:11:48;;;;;;;16.75;10.32;;;1.00;39.90;;;;;;5016218;28;20209;-67
2022/04/03 04:14:14;;;;;;;12.17;11.00;;;1.10;40.50;;;;;;5016385;28;20175;-68
2022/04/03 04:16:40;;;;;;;18.07;12.63;;;1.20;40.00;;;;;;5014639;28;20214;-68
2022/04/03 04:19:06;;;;;;;12.50;11.18;;;1.20;40.00;;;;;;5015531;28;20423;-67
2022/04/03 04:21:32;;;;;;;14.57;12.23;;;1.30;39.60;;;;;;5014943;28;20213;-68
2022/04/03 04:23:58;;;;;;;18.93;10.90;;;1.00;39.80;;;;;;5014597;28;20187;-67
2022/04/03 04:26:24;;;;;;;13.90;11.50;;;1.10;39.90;;;;;;5014451;28;20859;-67
2022/04/03 04:28:51;;;;;;;14.77;13.27;;;1.20;39.10;;;;;;5013512;28;20198;-68
2022/04/03 04:31:17;;;;;;;12.75;10.18;;;1.10;39.10;;;;;;5013455;28;20187;-66
2022/04/03 04:33:43;;;;;;;15.38;11.55;;;1.10;39.00;;;;;;5013657;28;20248;-69
2022/04/03 04:36:09;;;;;;;14.97;10.83;;;1.10;39.90;;;;;;5012276;28;20680;-69
2022/04/03 04:38:34;;;;;;;16.87;15.10;;;1.20;39.00;;;;;;5011746;28;20196;-70
2022/04/03 04:41:00;;;;;;;13.90;11.07;;;1.30;39.30;;;;;;5012123;28;20186;-69
2022/04/03 04:43:25;;;;;;;15.07;12.93;;;1.30;39.10;;;;;;5013046;28;20200;-69
2022/04/03 04:45:51;;;;;;;14.23;12.73;;;1.10;38.80;;;;;;5017140;28;20186;-70
2022/04/03 04:48:16;;;;;;;16.50;13.50;;;0.70;40.70;;;;;;5017051;28;20183;-69
2022/04/03 04:50:42;;;;;;;15.40;13.80;;;0.60;42.00;;;;;;5016434;28;20187;-70
2022/04/03 04:53:08;;;;;;;16.07;13.23;;;0.50;42.80;;;;;;5016019;28;20202;-70
2022/04/03 04:55:33;;;;;;;20.20;14.23;;;0.60;43.50;;;;;;5017024;28;20206;-70
2022/04/03 04:57:59;;;;;;;23.10;15.70;;;0.70;43.80;;;;;;5016614;28;20432;-70
2022/04/03 05:00:26;;;;;;;17.40;15.20;;;0.50;43.20;;;;;;5016503;28;20292;-70
2022/04/03 05:02:52;;;;;;;18.63;14.10;;;0.20;44.20;;;;;;5017385;28;20198;-69
2022/04/03 05:05:19;;;;;;;20.20;16.00;;;0.10;45.50;;;;;;5016172;28;20178;-70
2022/04/03 05:07:47;;;;;;;17.83;14.13;;;0.00;46.60;;;;;;5009330;28;20273;-70
2022/04/03 05:10:15;;;;;;;19.17;14.70;;;0.00;47.90;;;;;;5006071;28;20193;-70
2022/04/03 05:12:42;;;;;;;27.25;16.10;;;0.10;47.20;;;;;;5017276;28;20199;-70
2022/04/03 05:15:11;;;;;;;19.05;14.93;;;0.00;47.70;;;;;;5007741;28;20196;-70
2022/04/03 05:17:42;;;;;;;20.20;13.77;;;0.00;48.90;;;;;;5016658;28;20680;-70
2022/04/03 05:20:08;;;;;;;21.85;14.95;;;0.00;48.90;;;;;;5016639;28;20176;-71
2022/04/03 05:22:34;;;;;;;19.83;15.13;;;0.30;47.60;;;;;;5039647;23;20236;-71
2022/04/03 05:25:03;;;;;;;21.10;15.40;;;0.30;46.50;;;;;;5015174;28;20518;-70
2022/04/03 05:27:29;;;;;;;21.95;15.30;;;0.30;45.20;;;;;;5027385;28;20425;-70
2022/04/03 05:29:55;;;;;;;20.95;15.20;;;0.40;44.30;;;;;;5005237;28;20182;-69
2022/04/03 05:32:29;;;;;;;19.77;14.77;;;0.40;43.40;;;;;;5034802;28;20195;-69
2022/04/03 05:34:56;;;;;;;16.85;13.32;;;0.20;44.20;;;;;;5032763;28;20415;-70
2022/04/03 05:37:22;;;;;;;19.08;13.98;;;0.20;45.00;;;;;;5032767;28;20221;-69
2022/04/03 05:39:47;;;;;;;25.70;14.67;;;0.20;45.80;;;;;;5034580;28;20637;-69
2022/04/03 05:42:13;;;;;;;26.30;15.87;;;0.20;45.50;;;;;;5034369;28;20445;-69
2022/04/03 05:44:39;;;;;;;18.40;15.80;;;0.20;46.30;;;;;;5018068;28;20185;-69
2022/04/03 05:47:05;;;;;;;23.33;14.88;;;0.10;45.40;;;;;;5014727;28;20197;-69
2022/04/03 05:49:31;;;;;;;16.10;14.43;;;0.10;46.60;;;;;;5014843;28;20543;-69
2022/04/03 05:51:56;;;;;;;16.93;12.90;;;0.00;45.50;;;;;;5034472;28;20486;-69
2022/04/03 05:54:22;;;;;;;14.90;12.27;;;0.10;46.90;;;;;;5031910;28;20184;-70
2022/04/03 05:56:48;;;;;;;19.30;15.03;;;0.30;45.60;;;;;;5034170;28;20242;-72
2022/04/03 05:59:13;;;;;;;18.37;13.37;;;0.30;44.20;;;;;;5033252;28;20210;-70
2022/04/03 06:01:39;;;;;;;16.53;14.27;;;0.30;44.80;;;;;;5029249;28;20181;-70
2022/04/03 06:04:04;;;;;;;15.13;12.30;;;0.50;44.40;;;;;;5033847;28;20189;-69
2022/04/03 06:06:30;;;;;;;15.33;12.57;;;0.60;41.80;;;;;;5032662;28;20533;-70
2022/04/03 06:08:55;;;;;;;17.87;13.23;;;0.50;43.20;;;;;;5034143;28;20217;-69
2022/04/03 06:11:21;;;;;;;17.10;14.10;;;0.60;43.30;;;;;;5018169;28;20165;-69
2022/04/03 06:13:47;;;;;;;15.73;13.13;;;0.50;42.30;;;;;;5014623;28;20209;-70
2022/04/03 06:16:12;;;;;;;18.77;14.50;;;0.60;41.90;;;;;;5014395;28;20215;-70
2022/04/03 06:18:38;;;;;;;19.70;13.40;;;0.70;41.20;;;;;;5021475;28;20235;-69
2022/04/03 06:21:03;;;;;;;14.57;12.73;;;0.50;41.20;;;;;;5015393;28;20231;-70
2022/04/03 06:23:29;;;;;;;16.20;11.87;;;0.50;41.20;;;;;;5033585;28;20270;-70
2022/04/03 06:25:56;;;;;;;18.73;14.73;;;0.50;41.60;;;;;;5033634;28;20181;-70
2022/04/03 06:28:22;;;;;;;15.35;13.20;;;0.60;41.80;;;;;;5033349;28;20420;-69
2022/04/03 06:30:48;;;;;;;15.10;12.90;;;0.70;40.40;;;;;;5034216;28;20183;-68
2022/04/03 06:33:14;;;;;;;15.50;13.03;;;0.60;41.70;;;;;;5024705;28;21047;-69
2022/04/03 06:35:40;;;;;;;14.65;12.07;;;0.70;40.20;;;;;;5015992;28;20699;-69
2022/04/03 06:38:05;;;;;;;13.53;11.67;;;0.50;41.10;;;;;;5014095;28;20221;-70
2022/04/03 06:40:34;;;;;;;13.33;10.60;;;0.50;42.10;;;;;;5013867;28;20556;-68
2022/04/03 06:43:01;;;;;;;12.23;10.95;;;0.70;41.20;;;;;;5022093;28;20340;-70
2022/04/03 06:45:27;;;;;;;15.25;11.95;;;0.90;40.50;;;;;;5033532;28;20183;-68
2022/04/03 06:47:53;;;;;;;13.23;11.80;;;0.60;40.40;;;;;;5032002;28;20278;-70
2022/04/03 06:50:20;;;;;;;14.43;11.30;;;0.60;40.70;;;;;;5031917;28;20213;-70
2022/04/03 06:52:46;;;;;;;13.07;10.48;;;0.70;39.60;;;;;;5025257;28;20212;-71
2022/04/03 06:55:12;;;;;;;15.73;10.80;;;0.60;39.60;;;;;;5033003;28;20215;-71
2022/04/03 06:57:38;;;;;;;11.50;10.37;;;0.70;40.40;;;;;;5031556;28;20660;-69
2022/04/03 07:00:08;;;;;;;18.47;12.20;;;0.70;38.20;;;;;;5025530;28;20179;-70
2022/04/03 07:02:34;;;;;;;12.95;11.73;;;0.70;38.60;;;;;;5044455;28;20468;-70
2022/04/03 07:05:01;;;;;;;16.08;13.70;;;0.60;39.20;;;;;;5013484;28;20261;-69
2022/04/03 07:07:27;;;;;;;13.02;11.63;;;0.70;40.00;;;;;;5013737;28;20172;-69
2022/04/03 07:09:53;;;;;;;11.37;10.27;;;1.10;39.90;;;;;;5013211;28;20713;-69
2022/04/03 07:12:20;;;;;;;16.42;12.63;;;1.30;38.10;;;;;;5016482;28;20510;-69
2022/04/03 07:14:46;;;;;;;13.18;11.85;;;1.30;38.30;;;;;;5031738;28;20263;-67
2022/04/03 07:17:12;;;;;;;13.07;11.88;;;1.40;37.40;;;;;;5032491;28;20593;-67
2022/04/03 07:19:38;;;;;;;12.85;11.05;;;1.40;35.10;;;;;;5032382;28;20200;-67
2022/04/03 07:22:03;;;;;;;13.37;9.70;;;1.00;37.70;;;;;;5031979;28;20687;-70
2022/04/03 07:24:29;;;;;;;11.73;10.60;;;1.20;37.60;;;;;;5031366;28;20338;-69
2022/04/03 07:26:56;;;;;;;11.33;10.27;;;1.30;36.80;;;;;;5019688;28;20517;-69
2022/04/03 07:29:25;;;;;;;14.32;10.57;;;1.00;36.20;;;;;;5015571;28;20420;-70
2022/04/03 07:31:52;;;;;;;11.50;10.40;;;1.00;36.20;;;;;;5012403;28;20196;-68
2022/04/03 07:34:17;;;;;;;12.32;11.13;;;1.10;37.00;;;;;;5013351;28;20176;-69
2022/04/03 07:36:44;;;;;;;12.13;11.00;;;1.30;36.40;;;;;;5013612;28;20218;-69
2022/04/03 07:39:09;;;;;;;13.85;12.52;;;1.60;36.30;;;;;;5013653;28;20425;-69
2022/04/03 07:41:36;;;;;;;10.20;9.30;;;1.20;35.00;;;;;;5014018;28;20175;-70
2022/04/03 07:44:04;;;;;;;13.32;9.90;;;1.20;35.30;;;;;;5013789;28;20180;-70
2022/04/03 07:46:30;;;;;;;14.23;11.20;;;1.40;35.20;;;;;;5017963;28;20210;-72
2022/04/03 07:48:55;;;;;;;12.57;11.43;;;1.60;34.20;;;;;;5034136;28;20658;-71
2022/04/03 07:51:23;;;;;;;10.37;9.40;;;1.90;33.80;;;;;;5031921;28;20201;-72
2022/04/03 07:53:49;;;;;;;10.98;9.63;;;2.10;33.50;;;;;;5031440;28;20180;-72
2022/04/03 07:56:16;;;;;;;9.80;8.80;;;1.90;32.70;;;;;;5036724;28;20253;-71
2022/04/03 07:58:42;;;;;;;11.98;10.93;;;2.30;32.80;;;;;;5033883;28;20497;-70
2022/04/03 08:01:07;;;;;;;11.00;9.20;;;2.40;29.70;;;;;;5032854;28;20600;-70
2022/04/03 08:03:33;;;;;;;12.70;11.50;;;2.50;29.90;;;;;;5032887;28;20291;-70
2022/04/03 08:05:59;;;;;;;10.40;9.60;;;2.30;30.20;;;;;;5036001;28;20180;-70
2022/04/03 08:08:25;;;;;;;11.20;10.20;;;2.80;30.80;;;;;;5034961;28;20229;-70
2022/04/03 08:10:50;;;;;;;12.40;11.33;;;2.70;27.70;;;;;;5031786;28;20531;-70
2022/04/03 08:13:17;;;;;;;10.03;9.20;;;3.00;28.90;;;;;;5026816;28;20713;-71
2022/04/03 08:15:43;;;;;;;9.68;8.75;;;2.60;27.20;;;;;;5012249;28;20200;-71
2022/04/03 08:18:08;;;;;;;11.68;10.77;;;3.10;29.10;;;;;;5011741;28;20182;-71
2022/04/03 08:20:34;;;;;;;12.27;11.27;;;2.80;27.90;;;;;;5012543;28;20176;-72
2022/04/03 08:23:03;;;;;;;11.90;10.93;;;3.50;26.70;;;;;;5014882;28;20204;-69
2022/04/03 08:25:39;;;;;;;13.15;12.02;;;3.50;27.00;;;;;;5034779;28;20180;-70
2022/04/03 08:28:07;;;;;;;11.82;10.93;;;4.00;24.50;;;;;;5033659;28;20179;-70
2022/04/03 08:30:34;;;;;;;16.90;11.88;;;4.00;24.40;;;;;;5032532;28;20182;-69
2022/04/03 08:33:01;;;;;;;12.85;11.95;;;4.20;24.90;;;;;;5029383;28;20367;-69
2022/04/03 08:35:30;;;;;;;12.80;12.00;;;4.00;23.70;;;;;;5012028;28;20772;-70
2022/04/03 08:37:56;;;;;;;12.75;11.85;;;4.40;24.10;;;;;;5011962;28;20208;-71
2022/04/03 08:40:24;;;;;;;13.10;12.00;;;4.40;21.80;;;;;;5011023;28;20187;-70
2022/04/03 08:42:52;;;;;;;13.38;12.48;;;4.10;23.00;;;;;;5020526;28;20205;-70
2022/04/03 08:45:18;;;;;;;11.82;11.05;;;4.20;22.90;;;;;;5031823;28;20264;-70
2022/04/03 08:47:49;;;;;;;10.98;10.07;;;4.00;21.10;;;;;;5030285;28;20605;-70
2022/04/03 08:50:17;;;;;;;12.43;11.25;;;4.00;23.20;;;;;;5031758;28;20175;-69
2022/04/03 08:52:46;;;;;;;12.30;11.52;;;3.80;23.80;;;;;;5023651;28;20257;-69
2022/04/03 08:55:12;;;;;;;12.10;11.10;;;4.20;21.30;;;;;;5011823;28;20669;-71
2022/04/03 08:57:38;;;;;;;12.57;11.57;;;4.20;21.30;;;;;;5011851;28;20196;-71
2022/04/03 09:00:05;;;;;;;12.17;11.33;;;4.40;21.50;;;;;;5011838;28;20195;-70
2022/04/03 09:02:31;;;;;;;12.90;11.85;;;4.20;21.50;;;;;;5017160;28;20200;-71
2022/04/03 09:04:56;;;;;;;12.67;11.57;;;4.40;19.80;;;;;;5030273;28;20295;-72
2022/04/03 09:07:22;;;;;;;13.60;12.70;;;4.90;19.30;;;;;;5031376;28;20650;-70
2022/04/03 09:10:00;;;;;;;12.63;11.83;;;4.80;17.50;;;;;;5030522;28;20181;-71
2022/04/03 09:12:26;;;;;;;13.63;12.70;;;4.90;19.20;;;;;;5020205;28;20207;-71
2022/04/03 09:14:53;;;;;;;13.80;12.90;;;4.50;16.90;;;;;;5010637;28;20200;-72
2022/04/03 09:17:31;;;;;;;13.00;12.20;;;4.80;16.60;;;;;;5011764;28;20285;-73
2022/04/03 09:20:06;;;;;;;13.00;12.33;;;5.30;18.60;;;;;;5012135;28;20313;-71
2022/04/03 09:22:37;;;;;;;13.97;13.27;;;5.90;17.30;;;;;;5021208;28;20902;-72
2022/04/03 09:25:04;;;;;;;13.18;12.15;;;6.20;15.90;;;;;;5030722;28;20541;-70
2022/04/03 09:27:34;;;;;;;12.77;12.07;;;5.10;16.20;;;;;;5031693;28;20185;-71
2022/04/03 09:30:05;;;;;;;14.10;13.07;;;5.00;17.00;;;;;;5035073;28;20744;-71
2022/04/03 09:32:31;;;;;;;14.70;13.70;;;5.50;16.90;;;;;;5025357;28;20826;-69
2022/04/03 09:34:57;;;;;;;13.83;12.73;;;;;;;;;;5015186;28;20400;-71
2022/04/03 09:37:26;;;;;;;11.90;10.73;;;4.20;18.80;;;;;;5015360;28;20577;-69
2022/04/03 09:39:53;;;;;;;10.65;9.90;;;3.90;19.40;;;;;;5015485;28;20227;-71
2022/04/03 09:42:19;;;;;;;12.35;11.68;;;3.70;19.30;;;;;;5027845;28;20200;-69
2022/04/03 09:44:47;;;;;;;12.15;11.48;;;3.50;18.40;;;;;;5033666;28;20181;-71
2022/04/03 09:47:33;;;;;;;12.98;12.15;;;3.30;19.10;;;;;;5035240;28;20274;-71
2022/04/03 09:50:03;;;;;;;11.55;10.85;;;3.10;20.80;;;;;;5030924;28;20189;-70
2022/04/03 09:52:43;;;;;;;13.30;12.23;;;3.30;21.40;;;;;;5038567;28;20201;-69
2022/04/03 09:55:20;;;;;;;12.52;11.52;;;3.40;20.90;;;;;;5044476;28;20179;-70
2022/04/03 09:57:47;;;;;;;11.40;10.55;;;3.40;21.00;;;;;;5033799;28;20740;-70
2022/04/03 10:00:26;;;;;;;14.35;11.48;;;3.30;22.20;;;;;;5035033;28;20689;-70
2022/04/03 10:03:00;;;;;;;12.07;11.27;;;3.00;23.10;;;;;;5034758;28;20719;-71
2022/04/03 10:05:28;;;;;;;11.90;11.20;;;3.40;22.60;;;;;;5034516;28;20180;-70
2022/04/03 10:07:57;;;;;;;12.32;11.63;;;3.50;20.40;;;;;;5014644;28;20204;-71
2022/04/03 10:10:23;;;;;;;11.50;10.82;;;3.00;20.30;;;;;;5014365;28;20181;-71
2022/04/03 10:12:48;;;;;;;11.53;10.77;;;3.30;20.80;;;;;;5014208;28;20196;-72
2022/04/03 10:15:14;;;;;;;13.00;11.93;;;3.90;21.60;;;;;;5046344;28;20180;-72
2022/04/03 10:17:40;;;;;;;13.80;13.00;;;3.50;16.90;;;;;;5031781;28;20271;-70
2022/04/03 10:20:06;;;;;;;14.30;13.40;;;3.80;16.40;;;;;;5034131;28;20175;-70
2022/04/03 10:22:35;;;;;;;12.75;12.05;;;3.80;16.90;;;;;;5020414;28;20233;-70
2022/04/03 10:25:07;;;;;;;13.48;12.68;;;4.40;17.30;;;;;;5033857;28;20177;-70
2022/04/03 10:27:39;;;;;;;11.73;11.13;;;5.10;18.50;;;;;;5032261;28;20683;-70
2022/04/03 10:30:05;;;;;;;11.48;10.88;;;5.10;17.10;;;;;;5033573;28;20179;-69
2022/04/03 10:32:34;;;;;;;13.20;12.40;;;5.20;17.90;;;;;;5026947;28;20226;-70
2022/04/03 10:35:08;;;;;;;12.20;11.60;;;5.80;16.40;;;;;;5006358;28;20439;-68
2022/04/03 10:37:37;;;;;;;12.77;11.87;;;5.90;15.60;;;;;;4993250;28;20427;-69
2022/04/03 10:40:04;;;;;;;13.53;12.53;;;6.00;16.00;;;;;;5026563;28;20451;-68
2022/04/03 10:42:30;;;;;;;13.83;12.90;;;5.80;15.60;;;;;;4994447;28;20431;-68
2022/04/03 10:45:11;;;;;;;14.10;12.80;;;5.70;17.70;;;;;;5013902;28;21019;-68
2022/04/03 10:47:40;;;;;;;13.43;12.33;;;6.10;16.20;;;;;;5023617;28;20483;-69
2022/04/03 10:50:08;;;;;;;12.60;11.97;;;5.50;15.40;;;;;;5018995;28;21105;-68
2022/04/03 10:52:39;;;;;;;13.40;12.57;;;4.80;15.50;;;;;;5011029;28;20873;-68
2022/04/03 10:55:17;;;;;;;13.38;12.45;;;4.60;16.30;;;;;;4994212;28;20410;-68
2022/04/03 10:57:44;;;;;;;13.57;12.77;;;4.80;17.60;;;;;;5013734;28;20189;-68
2022/04/03 11:00:10;;;;;;;13.77;12.82;;;5.00;17.00;;;;;;5013547;28;20201;-68
2022/04/03 11:02:35;;;;;;;13.57;12.77;;;5.10;16.20;;;;;;5013422;28;20189;-68
2022/04/03 11:05:29;;;;;;;12.67;11.70;;;4.20;16.70;;;;;;5013554;28;20409;-68
2022/04/03 11:08:14;;;;;;;12.20;11.50;;;4.00;17.50;;;;;;5021011;28;20243;-69
2022/04/03 11:10:57;;;;;;;10.63;9.88;;;3.90;14.40;;;;;;5002085;28;20223;-68
2022/04/03 11:13:29;;;;;;;12.15;11.35;;;3.00;17.10;;;;;;5036310;28;20242;-68
2022/04/03 11:15:55;;;;;;;11.82;11.13;;;3.00;17.20;;;;;;5009716;28;20551;-69
2022/04/03 11:18:37;;;;;;;10.07;9.43;;;2.80;18.70;;;;;;5012950;28;20184;-69
2022/04/03 11:21:08;;;;;;;10.75;10.15;;;2.80;18.70;;;;;;5013311;28;20164;-68
2022/04/03 11:23:36;;;;;;;9.95;9.38;;;3.00;18.50;;;;;;5028012;22;20224;-69
2022/04/03 11:26:03;;;;;;;12.07;11.35;;;3.20;19.00;;;;;;5012760;28;20181;-69
2022/04/03 11:28:29;;;;;;;11.32;10.73;;;3.50;17.10;;;;;;5012758;28;20190;-69
2022/04/03 11:30:55;;;;;;;11.70;11.00;;;3.50;17.80;;;;;;5009670;28;20259;-69
2022/04/03 11:33:22;;;;;;;10.35;9.65;;;3.60;19.20;;;;;;5021275;28;20246;-69
2022/04/03 11:35:47;;;;;;;12.00;10.40;;;3.70;19.60;;;;;;5028774;28;20249;-68
2022/04/03 11:38:14;;;;;;;10.97;10.17;;;3.10;20.10;;;;;;5031761;28;20183;-68
2022/04/03 11:40:46;;;;;;;10.57;9.98;;;2.80;20.90;;;;;;5021949;28;20583;-69
2022/04/03 11:43:19;;;;;;;12.07;11.38;;;2.80;21.80;;;;;;5017532;28;20210;-68
2022/04/03 11:45:52;;;;;;;10.95;10.15;;;3.40;20.10;;;;;;5012880;28;20226;-68
2022/04/03 11:48:21;;;;;;;10.68;9.88;;;3.50;20.50;;;;;;5012156;28;20235;-68
2022/04/03 11:50:49;;;;;;;13.00;12.20;;;3.50;20.50;;;;;;5012167;28;20624;-68
2022/04/03 11:53:18;;;;;;;11.77;11.02;;;3.50;19.70;;;;;;5010180;28;20305;-68
2022/04/03 11:55:47;;;;;;;11.05;9.93;;;3.70;20.30;;;;;;4995100;28;20244;-68
2022/04/03 11:58:17;;;;;;;10.27;9.65;;;3.60;21.10;;;;;;5007817;28;20680;-68
2022/04/03 12:00:49;;;;;;;11.18;10.38;;;3.20;21.70;;;;;;4992540;28;20173;-68
2022/04/03 12:03:27;;;;;;;11.40;10.63;;;3.50;21.40;;;;;;5012387;28;20563;-68
2022/04/03 12:06:10;;;;;;;10.32;9.65;;;3.40;21.40;;;;;;5012386;28;20226;-68
2022/04/03 12:08:40;;;;;;;10.48;9.88;;;3.10;23.10;;;;;;5010874;28;20211;-67
2022/04/03 12:11:19;;;;;;;11.73;10.93;;;3.50;21.80;;;;;;5011956;28;20197;-68
2022/04/03 12:13:45;;;;;;;10.93;10.30;;;3.60;22.00;;;;;;5012511;28;20246;-68
2022/04/03 12:16:23;;;;;;;11.77;11.07;;;3.60;20.70;;;;;;5012576;28;20219;-68
2022/04/03 12:18:52;;;;;;;11.73;10.93;;;3.60;22.30;;;;;;5012342;28;20184;-69
2022/04/03 12:21:17;;;;;;;11.82;10.57;;;3.30;22.10;;;;;;5012653;28;20523;-68
2022/04/03 12:24:08;;;;;;;10.80;10.10;;;3.60;21.60;;;;;;5015850;28;20220;-68
2022/04/03 12:26:34;;;;;;;12.52;11.65;;;3.80;21.70;;;;;;5015773;28;20173;-69
2022/04/03 12:29:01;;;;;;;11.23;10.52;;;4.10;21.60;;;;;;5011459;28;20262;-69
2022/04/03 12:31:30;;;;;;;13.43;12.13;;;4.00;21.80;;;;;;5011755;28;20184;-69
2022/04/03 12:34:12;;;;;;;11.40;10.70;;;3.90;21.40;;;;;;5012120;28;20232;-68
2022/04/03 12:36:43;;;;;;;11.88;11.07;;;4.40;22.60;;;;;;5011758;28;20209;-68
2022/04/03 12:39:28;;;;;;;12.07;11.30;;;4.70;19.90;;;;;;5012235;28;20655;-68